Time;durP1;ratioP1;P1;durP2;ratioP2;P2;SDS_P1;SDS_P2;PMS_P1;PMS_P2;Temp;Humidity;BMP_temperature;BMP_pressure;BME280_temperature;BME280_humidity;BME280_pressure;Samples;Min_cycle;Max_cycle;Signal;HPM_P1;HPM_P2
2023/09/08 00:01:32;;;;;;;12.03;7.43;;;;;19.10;101319.00;;;;4925775;29;20369;-73
2023/09/08 00:04:20;;;;;;;11.13;6.70;;;;;19.10;101314.00;;;;4920531;29;20239;-74
2023/09/08 00:07:07;;;;;;;10.73;7.00;;;;;19.00;101311.00;;;;4926930;28;20254;-74
2023/09/08 00:09:53;;;;;;;11.10;6.93;;;;;19.00;101315.00;;;;4929417;28;20230;-74
2023/09/08 00:12:39;;;;;;;10.73;6.93;;;;;19.10;101309.00;;;;4922761;29;20225;-74
2023/09/08 00:15:27;;;;;;;12.03;7.20;;;;;19.10;101319.00;;;;4916341;29;20244;-74
2023/09/08 00:18:13;;;;;;;10.03;7.43;;;;;19.00;101321.00;;;;4927853;28;20917;-71
2023/09/08 00:20:59;;;;;;;11.73;6.80;;;;;19.00;101323.00;;;;4917502;29;20306;-70
2023/09/08 00:23:46;;;;;;;9.67;7.23;;;;;18.90;101310.00;;;;4919324;29;20234;-71
2023/09/08 00:26:33;;;;;;;8.97;6.93;;;;;18.90;101317.00;;;;4916343;29;20788;-74
2023/09/08 00:29:19;;;;;;;8.53;6.80;;;;;18.90;101313.00;;;;4931174;29;20314;-74
2023/09/08 00:32:07;;;;;;;9.70;7.10;;;;;18.90;101313.00;;;;4919007;29;20846;-72
2023/09/08 00:34:53;;;;;;;9.67;7.50;;;;;18.80;101316.00;;;;4913827;29;20221;-74
2023/09/08 00:37:40;;;;;;;8.60;6.73;;;;;18.80;101317.00;;;;4925615;29;20289;-74
2023/09/08 00:40:27;;;;;;;8.70;7.23;;;;;18.80;101312.00;;;;4928461;29;20626;-71
2023/09/08 00:43:13;;;;;;;11.17;7.53;;;;;18.80;101307.00;;;;4921209;29;20622;-71
2023/09/08 00:46:02;;;;;;;8.50;6.53;;;;;18.70;101306.00;;;;4922312;29;20285;-71
2023/09/08 00:48:50;;;;;;;12.87;7.23;;;;;18.70;101305.00;;;;4925089;29;20248;-74
2023/09/08 00:51:37;;;;;;;9.13;7.00;;;;;18.70;101303.00;;;;4920868;28;20238;-72
2023/09/08 00:54:24;;;;;;;10.23;7.33;;;;;18.70;101302.00;;;;4919055;29;20843;-71
2023/09/08 00:57:11;;;;;;;9.27;7.00;;;;;18.70;101295.00;;;;4920917;29;20265;-74
2023/09/08 00:59:57;;;;;;;8.67;7.50;;;;;18.70;101294.00;;;;4915920;29;20233;-74
2023/09/08 01:02:44;;;;;;;9.27;6.70;;;;;18.60;101296.00;;;;4928827;29;20750;-72
2023/09/08 01:05:33;;;;;;;11.33;7.60;;;;;18.60;101296.00;;;;4917388;29;20237;-73
2023/09/08 01:08:20;;;;;;;10.40;7.43;;;;;18.50;101302.00;;;;4916728;28;20293;-73
2023/09/08 01:11:07;;;;;;;9.70;7.77;;;;;18.50;101306.00;;;;4918678;28;20750;-73
2023/09/08 01:13:54;;;;;;;10.43;7.30;;;;;18.40;101301.00;;;;4923691;28;20296;-73
2023/09/08 01:16:41;;;;;;;9.53;7.13;;;;;18.40;101292.00;;;;4928152;29;20685;-73
2023/09/08 01:19:27;;;;;;;9.57;6.90;;;;;18.30;101301.00;;;;4922935;28;20365;-73
2023/09/08 01:22:42;;;;;;;9.40;7.10;;;;;18.30;101299.00;;;;4917920;29;20301;-73
2023/09/08 01:25:30;;;;;;;11.13;7.13;;;;;18.30;101306.00;;;;4928950;28;20233;-72
2023/09/08 01:28:18;;;;;;;13.97;8.03;;;;;18.20;101301.00;;;;4931653;28;20314;-71
2023/09/08 01:31:05;;;;;;;9.17;6.70;;;;;18.20;101305.00;;;;4926223;29;20237;-73
2023/09/08 01:33:52;;;;;;;9.43;7.43;;;;;18.20;101309.00;;;;4922026;29;20233;-74
2023/09/08 01:36:38;;;;;;;10.40;6.87;;;;;18.20;101302.00;;;;4918720;29;20229;-73
2023/09/08 01:39:25;;;;;;;9.33;7.07;;;;;18.20;101302.00;;;;4927976;29;20249;-74
2023/09/08 01:42:12;;;;;;;11.23;7.47;;;;;18.20;101302.00;;;;4926122;28;20595;-73
2023/09/08 01:44:59;;;;;;;11.27;6.97;;;;;18.10;101291.00;;;;4921052;29;20225;-74
2023/09/08 01:47:45;;;;;;;10.37;7.20;;;;;18.10;101288.00;;;;4926321;29;20265;-73
2023/09/08 01:50:32;;;;;;;10.10;7.60;;;;;18.10;101293.00;;;;4923015;29;20240;-74
2023/09/08 01:53:18;;;;;;;12.23;7.20;;;;;18.10;101290.00;;;;4918019;29;20245;-75
2023/09/08 01:56:05;;;;;;;12.20;8.10;;;;;18.00;101293.00;;;;4917189;29;20233;-75
2023/09/08 01:58:52;;;;;;;11.27;8.10;;;;;18.00;101282.00;;;;4924158;28;20273;-73
2023/09/08 02:01:39;;;;;;;12.63;8.00;;;;;18.00;101284.00;;;;4921697;29;20241;-75
2023/09/08 02:04:25;;;;;;;11.13;8.17;;;;;18.00;101290.00;;;;4915914;29;20265;-73
2023/09/08 02:07:12;;;;;;;9.93;7.40;;;;;18.00;101292.00;;;;4915173;29;20702;-71
2023/09/08 02:09:58;;;;;;;9.80;7.60;;;;;17.90;101282.00;;;;4924349;29;20374;-75
2023/09/08 02:12:44;;;;;;;10.27;7.30;;;;;17.90;101292.00;;;;4920503;28;20312;-73
2023/09/08 02:15:32;;;;;;;12.97;7.97;;;;;17.90;101281.00;;;;4924191;29;20316;-73
2023/09/08 02:18:18;;;;;;;9.60;7.27;;;;;17.90;101281.00;;;;4920162;29;20240;-74
2023/09/08 02:21:05;;;;;;;10.37;7.67;;;;;17.80;101278.00;;;;4917734;28;20606;-71
2023/09/08 02:23:51;;;;;;;10.47;7.70;;;;;17.80;101280.00;;;;4923301;29;20256;-75
2023/09/08 02:26:39;;;;;;;12.23;7.83;;;;;17.80;101285.00;;;;4915226;29;20370;-71
2023/09/08 02:29:25;;;;;;;11.00;8.37;;;;;17.70;101279.00;;;;4925550;29;20280;-73
2023/09/08 02:32:14;;;;;;;10.27;7.87;;;;;17.70;101287.00;;;;4927635;28;20232;-73
2023/09/08 02:35:00;;;;;;;11.90;8.53;;;;;17.70;101286.00;;;;4914439;29;20233;-72
2023/09/08 02:37:46;;;;;;;8.73;7.23;;;;;17.70;101287.00;;;;4918625;29;20251;-75
2023/09/08 02:40:34;;;;;;;10.60;7.67;;;;;17.60;101281.00;;;;4918612;28;20260;-75
2023/09/08 02:43:20;;;;;;;12.57;8.23;;;;;17.60;101283.00;;;;4914671;29;20297;-72
2023/09/08 02:46:09;;;;;;;11.27;8.27;;;;;17.60;101287.00;;;;4914944;29;20236;-69
2023/09/08 02:48:57;;;;;;;10.10;8.07;;;;;17.60;101283.00;;;;4914425;29;20265;-72
2023/09/08 02:51:43;;;;;;;10.67;7.37;;;;;17.60;101286.00;;;;4909894;29;20328;-72
2023/09/08 02:54:29;;;;;;;13.00;8.17;;;;;17.60;101278.00;;;;4917341;28;20237;-73
2023/09/08 02:57:16;;;;;;;12.00;7.77;;;;;17.60;101269.00;;;;4921215;29;20324;-73
2023/09/08 03:00:02;;;;;;;13.80;8.07;;;;;17.50;101280.00;;;;4921602;28;20298;-74
2023/09/08 03:02:49;;;;;;;11.70;8.13;;;;;17.50;101277.00;;;;4925100;29;20374;-73
2023/09/08 03:05:36;;;;;;;12.83;8.07;;;;;17.40;101281.00;;;;4921113;28;20262;-73
2023/09/08 03:08:23;;;;;;;10.50;8.57;;;;;17.40;101276.00;;;;4917653;28;20257;-72
2023/09/08 03:11:10;;;;;;;10.10;8.00;;;;;17.40;101280.00;;;;4927605;28;20268;-70
2023/09/08 03:13:56;;;;;;;10.67;8.03;;;;;17.40;101271.00;;;;4919127;29;20612;-74
2023/09/08 03:16:42;;;;;;;11.03;8.53;;;;;17.30;101273.00;;;;4912226;29;20302;-73
2023/09/08 03:19:29;;;;;;;11.97;8.43;;;;;17.30;101273.00;;;;4915936;28;20731;-76
2023/09/08 03:22:16;;;;;;;11.50;9.03;;;;;17.30;101275.00;;;;4927462;29;21879;-72
2023/09/08 03:25:03;;;;;;;12.70;8.77;;;;;17.20;101275.00;;;;4921403;29;20317;-74
2023/09/08 03:27:49;;;;;;;12.90;8.03;;;;;17.20;101272.00;;;;4919371;29;20373;-72
2023/09/08 03:30:35;;;;;;;11.13;8.10;;;;;17.20;101274.00;;;;4912246;29;20241;-74
2023/09/08 03:33:22;;;;;;;12.20;8.30;;;;;17.20;101269.00;;;;4918341;29;20237;-73
2023/09/08 03:36:09;;;;;;;12.47;8.80;;;;;17.20;101272.00;;;;4914161;29;20340;-75
2023/09/08 03:38:57;;;;;;;12.20;8.40;;;;;17.20;101269.00;;;;4926534;29;20235;-71
2023/09/08 03:41:44;;;;;;;12.03;8.33;;;;;17.20;101263.00;;;;4924083;29;20300;-77
2023/09/08 03:44:30;;;;;;;12.17;8.50;;;;;17.10;101268.00;;;;4923321;29;20325;-75
2023/09/08 03:47:16;;;;;;;11.40;8.67;;;;;17.10;101263.00;;;;4925017;29;20228;-72
2023/09/08 03:50:02;;;;;;;12.90;8.97;;;;;17.10;101269.00;;;;4920190;29;20751;-76
2023/09/08 03:52:49;;;;;;;11.20;9.03;;;;;17.10;101267.00;;;;4921690;29;20237;-74
2023/09/08 03:55:36;;;;;;;11.73;8.33;;;;;17.00;101262.00;;;;4923287;28;20268;-74
2023/09/08 03:58:22;;;;;;;11.93;9.20;;;;;17.00;101269.00;;;;4917169;29;20750;-72
2023/09/08 04:01:08;;;;;;;12.20;9.37;;;;;17.00;101265.00;;;;4921645;29;20328;-73
2023/09/08 04:03:55;;;;;;;12.30;9.37;;;;;17.10;101263.00;;;;4917777;28;20233;-73
2023/09/08 04:06:42;;;;;;;15.03;9.70;;;;;17.10;101259.00;;;;4924438;29;20266;-73
2023/09/08 04:09:28;;;;;;;13.37;10.10;;;;;17.10;101262.00;;;;4926867;28;20741;-73
2023/09/08 04:12:16;;;;;;;14.43;9.30;;;;;17.00;101253.00;;;;4920147;28;20233;-73
2023/09/08 04:15:02;;;;;;;12.03;9.20;;;;;17.00;101260.00;;;;4923319;28;20285;-74
2023/09/08 04:17:49;;;;;;;11.83;9.20;;;;;17.00;101264.00;;;;4925092;28;20248;-73
2023/09/08 04:20:35;;;;;;;13.50;9.50;;;;;17.00;101265.00;;;;4918481;28;20963;-73
2023/09/08 04:23:22;;;;;;;14.43;9.83;;;;;17.00;101255.00;;;;4925100;28;20236;-75
2023/09/08 04:26:08;;;;;;;18.93;9.83;;;;;17.00;101254.00;;;;4924765;29;20267;-73
2023/09/08 04:28:56;;;;;;;14.13;8.80;;;;;16.90;101256.00;;;;4924105;29;20232;-73
2023/09/08 04:31:42;;;;;;;12.90;8.77;;;;;16.90;101259.00;;;;4925105;29;20730;-73
2023/09/08 04:34:29;;;;;;;12.07;8.43;;;;;16.90;101259.00;;;;4920601;28;20240;-72
2023/09/08 04:37:16;;;;;;;10.67;8.53;;;;;16.90;101266.00;;;;4923910;28;20244;-71
2023/09/08 04:40:02;;;;;;;12.90;9.00;;;;;16.90;101260.00;;;;4917580;28;20229;-72
2023/09/08 04:42:48;;;;;;;11.80;9.37;;;;;16.90;101257.00;;;;4919878;28;20236;-73
2023/09/08 04:45:36;;;;;;;13.03;9.30;;;;;16.80;101260.00;;;;4920695;29;20240;-73
2023/09/08 04:48:22;;;;;;;12.70;9.57;;;;;16.80;101266.00;;;;4927205;29;20233;-69
2023/09/08 04:51:09;;;;;;;15.20;9.00;;;;;16.80;101258.00;;;;4916253;28;20244;-76
2023/09/08 04:53:55;;;;;;;13.30;9.73;;;;;16.70;101263.00;;;;4925597;29;20310;-72
2023/09/08 04:56:41;;;;;;;16.40;10.03;;;;;16.70;101269.00;;;;4925069;29;20240;-73
2023/09/08 04:59:28;;;;;;;15.63;9.67;;;;;16.80;101263.00;;;;4928639;29;20237;-74
2023/09/08 05:02:16;;;;;;;13.30;10.03;;;;;16.80;101262.00;;;;4922727;29;20257;-72
2023/09/08 05:05:02;;;;;;;14.80;10.03;;;;;16.80;101263.00;;;;4929120;28;20233;-74
2023/09/08 05:07:49;;;;;;;15.83;9.30;;;;;16.70;101261.00;;;;4925098;29;20773;-74
2023/09/08 05:10:35;;;;;;;13.40;9.30;;;;;16.70;101263.00;;;;4926568;29;20249;-73
2023/09/08 05:13:26;;;;;;;14.20;10.43;;;;;16.70;101262.00;;;;4933080;28;20769;-72
2023/09/08 05:16:18;;;;;;;13.47;9.83;;;;;16.70;101266.00;;;;4920471;29;20317;-71
2023/09/08 05:19:06;;;;;;;13.80;10.07;;;;;16.70;101266.00;;;;4922142;29;20759;-75
2023/09/08 05:21:55;;;;;;;16.07;11.03;;;;;16.70;101261.00;;;;4922642;29;20232;-73
2023/09/08 05:24:42;;;;;;;15.33;10.63;;;;;16.70;101259.00;;;;4919432;29;20234;-72
2023/09/08 05:27:28;;;;;;;15.67;10.43;;;;;16.80;101259.00;;;;4919215;29;20233;-73
2023/09/08 05:30:14;;;;;;;14.97;10.40;;;;;16.80;101258.00;;;;4922757;29;20589;-72
2023/09/08 05:33:00;;;;;;;16.97;10.63;;;;;16.90;101257.00;;;;4924713;29;20611;-73
2023/09/08 05:35:48;;;;;;;13.43;10.40;;;;;16.90;101255.00;;;;4924636;29;20388;-71
2023/09/08 05:38:34;;;;;;;17.10;11.30;;;;;16.90;101251.00;;;;4922838;28;20794;-74
2023/09/08 05:41:21;;;;;;;16.17;11.87;;;;;17.00;101264.00;;;;4923975;29;21024;-74
2023/09/08 05:44:07;;;;;;;17.30;11.80;;;;;17.10;101258.00;;;;4922898;29;20281;-71
2023/09/08 05:46:54;;;;;;;15.53;11.60;;;;;17.10;101257.00;;;;4922325;29;20248;-70
2023/09/08 05:49:40;;;;;;;17.67;12.53;;;;;17.20;101259.00;;;;4911133;29;20261;-73
2023/09/08 05:52:28;;;;;;;15.60;11.60;;;;;17.20;101258.00;;;;4920910;29;20307;-72
2023/09/08 05:55:14;;;;;;;18.40;13.53;;;;;17.30;101255.00;;;;4913723;29;20250;-71
2023/09/08 05:58:02;;;;;;;23.90;12.47;;;;;17.40;101257.00;;;;4920334;28;20585;-70
2023/09/08 06:00:49;;;;;;;15.80;12.00;;;;;17.40;101255.00;;;;4926606;28;20365;-74
2023/09/08 06:03:35;;;;;;;16.17;11.90;;;;;17.50;101261.00;;;;4924440;29;20236;-72
2023/09/08 06:06:21;;;;;;;16.03;12.47;;;;;17.50;101263.00;;;;4922982;29;20322;-67
2023/09/08 06:09:11;;;;;;;18.73;13.30;;;;;17.60;101270.00;;;;4920106;29;20722;-70
2023/09/08 06:11:58;;;;;;;15.90;12.70;;;;;17.70;101264.00;;;;4919355;29;20251;-70
2023/09/08 06:14:44;;;;;;;17.77;12.47;;;;;17.80;101269.00;;;;4918359;29;20293;-70
2023/09/08 06:17:30;;;;;;;18.60;12.80;;;;;17.90;101269.00;;;;4921857;29;20239;-70
2023/09/08 06:20:17;;;;;;;17.23;12.50;;;;;18.00;101264.00;;;;4922408;29;20284;-66
2023/09/08 06:23:04;;;;;;;14.30;12.17;;;;;18.00;101262.00;;;;4920844;29;20244;-70
2023/09/08 06:25:52;;;;;;;17.23;12.40;;;;;18.10;101273.00;;;;4926846;29;20260;-68
2023/09/08 06:28:39;;;;;;;19.60;12.67;;;;;18.10;101276.00;;;;4924281;29;20353;-71
2023/09/08 06:31:25;;;;;;;17.33;12.60;;;;;18.20;101278.00;;;;4928189;29;20233;-70
2023/09/08 06:34:12;;;;;;;16.87;12.23;;;;;18.20;101278.00;;;;4924329;28;20361;-69
2023/09/08 06:36:58;;;;;;;17.40;13.37;;;;;18.30;101273.00;;;;4919700;29;20716;-70
2023/09/08 06:39:44;;;;;;;19.93;12.63;;;;;18.40;101272.00;;;;4926108;29;20236;-67
2023/09/08 06:42:32;;;;;;;20.97;11.87;;;;;18.40;101276.00;;;;4918965;29;20303;-69
2023/09/08 06:45:18;;;;;;;17.57;12.03;;;;;18.50;101276.00;;;;4921540;29;20284;-69
2023/09/08 06:48:06;;;;;;;16.80;12.63;;;;;18.60;101271.00;;;;4917241;29;20276;-74
2023/09/08 06:50:54;;;;;;;18.07;12.10;;;;;18.60;101278.00;;;;4913738;28;20232;-71
2023/09/08 06:53:40;;;;;;;19.87;12.37;;;;;18.60;101274.00;;;;4918066;29;20273;-72
2023/09/08 06:56:27;;;;;;;17.73;12.13;;;;;18.70;101268.00;;;;4912280;29;20699;-71
2023/09/08 06:59:14;;;;;;;18.10;12.50;;;;;18.80;101270.00;;;;4911725;29;20232;-72
2023/09/08 07:02:00;;;;;;;16.23;11.87;;;;;18.80;101274.00;;;;4925495;29;20229;-70
2023/09/08 07:04:47;;;;;;;17.30;11.50;;;;;18.90;101280.00;;;;4920350;29;20229;-72
2023/09/08 07:07:34;;;;;;;17.73;11.47;;;;;19.00;101279.00;;;;4924196;29;21354;-73
2023/09/08 07:10:21;;;;;;;18.47;11.63;;;;;19.00;101281.00;;;;4919534;29;20605;-72
2023/09/08 07:13:07;;;;;;;15.13;11.40;;;;;19.10;101271.00;;;;4921189;28;20233;-72
2023/09/08 07:15:54;;;;;;;14.87;11.47;;;;;19.20;101272.00;;;;4914861;29;20254;-74
2023/09/08 07:18:41;;;;;;;16.90;11.63;;;;;19.30;101273.00;;;;4920135;29;20596;-74
2023/09/08 07:21:27;;;;;;;19.07;11.30;;;;;19.30;101277.00;;;;4921950;29;20308;-72
2023/09/08 07:24:13;;;;;;;16.83;10.77;;;;;19.40;101283.00;;;;4910002;29;20237;-72
2023/09/08 07:27:00;;;;;;;20.17;11.30;;;;;19.50;101280.00;;;;4918839;29;20231;-71
2023/09/08 07:29:49;;;;;;;15.47;10.77;;;;;19.50;101282.00;;;;4917680;29;20915;-71
2023/09/08 07:32:37;;;;;;;15.40;11.50;;;;;19.70;101279.00;;;;4919370;29;20236;-74
2023/09/08 07:35:24;;;;;;;14.00;10.77;;;;;19.80;101279.00;;;;4916042;29;20281;-70
2023/09/08 07:38:10;;;;;;;15.50;11.00;;;;;19.90;101274.00;;;;4909030;29;20329;-72
2023/09/08 07:40:56;;;;;;;18.00;11.20;;;;;19.90;101271.00;;;;4917645;29;20259;-70
2023/09/08 07:43:45;;;;;;;17.60;10.93;;;;;20.00;101278.00;;;;4915752;29;20724;-71
2023/09/08 07:46:31;;;;;;;15.07;10.30;;;;;20.10;101280.00;;;;4918147;29;20243;-71
2023/09/08 07:49:20;;;;;;;14.17;10.37;;;;;20.30;101277.00;;;;4919690;29;20298;-72
2023/09/08 07:52:07;;;;;;;13.97;9.40;;;;;20.40;101277.00;;;;4926426;29;20248;-75
2023/09/08 07:54:53;;;;;;;14.33;10.33;;;;;20.50;101265.00;;;;4913892;29;20623;-70
2023/09/08 07:57:39;;;;;;;16.80;10.43;;;;;20.60;101271.00;;;;4918492;29;20235;-73
2023/09/08 08:00:26;;;;;;;13.27;9.43;;;;;20.70;101265.00;;;;4916846;29;20236;-71
2023/09/08 08:03:12;;;;;;;14.57;10.17;;;;;20.80;101264.00;;;;4922871;29;20364;-74
2023/09/08 08:06:00;;;;;;;11.80;9.80;;;;;21.00;101270.00;;;;4916030;29;20279;-71
2023/09/08 08:08:46;;;;;;;14.20;9.30;;;;;21.10;101263.00;;;;4917469;29;20609;-73
2023/09/08 08:11:33;;;;;;;15.67;8.90;;;;;21.30;101263.00;;;;4912958;29;20285;-74
2023/09/08 08:14:19;;;;;;;12.07;8.83;;;;;21.40;101264.00;;;;4921128;28;20240;-71
2023/09/08 08:17:05;;;;;;;13.47;8.97;;;;;21.60;101278.00;;;;4917505;29;20809;-73
2023/09/08 08:19:52;;;;;;;12.27;8.00;;;;;21.70;101269.00;;;;4916963;29;20304;-75
2023/09/08 08:22:40;;;;;;;11.47;8.63;;;;;21.80;101278.00;;;;4926843;29;20308;-74
2023/09/08 08:25:26;;;;;;;12.10;8.30;;;;;21.90;101282.00;;;;4922718;29;20249;-73
2023/09/08 08:28:12;;;;;;;11.27;8.23;;;;;22.00;101270.00;;;;4920383;29;20785;-73
2023/09/08 08:30:58;;;;;;;13.90;7.93;;;;;22.10;101274.00;;;;4924732;29;20312;-71
2023/09/08 08:33:45;;;;;;;16.53;8.60;;;;;22.20;101269.00;;;;4920156;29;20237;-72
2023/09/08 08:36:31;;;;;;;13.60;8.50;;;;;22.40;101269.00;;;;4923087;29;20249;-74
2023/09/08 08:39:19;;;;;;;12.37;8.20;;;;;22.60;101274.00;;;;4922410;29;20233;-72
2023/09/08 08:42:08;;;;;;;11.83;7.53;;;;;22.80;101277.00;;;;4914601;29;20791;-74
2023/09/08 08:44:55;;;;;;;14.20;7.90;;;;;22.90;101265.00;;;;4920987;29;20637;-71
2023/09/08 08:47:42;;;;;;;11.43;8.10;;;;;23.00;101264.00;;;;4912824;29;20264;-73
2023/09/08 08:50:31;;;;;;;12.37;7.83;;;;;23.20;101261.00;;;;4923982;29;20245;-69
2023/09/08 08:53:18;;;;;;;10.67;7.97;;;;;23.40;101267.00;;;;4923119;29;20308;-73
2023/09/08 08:56:08;;;;;;;12.17;7.23;;;;;23.50;101267.00;;;;4921038;29;20272;-72
2023/09/08 08:58:55;;;;;;;9.77;7.30;;;;;23.60;101259.00;;;;4917783;29;20236;-71
2023/09/08 09:01:44;;;;;;;10.67;7.70;;;;;23.70;101263.00;;;;4923075;29;20312;-74
2023/09/08 09:04:31;;;;;;;9.70;6.83;;;;;23.80;101264.00;;;;4920171;28;20762;-73
2023/09/08 09:07:19;;;;;;;10.00;6.50;;;;;23.90;101265.00;;;;4920777;29;20342;-73
2023/09/08 09:10:07;;;;;;;8.70;7.00;;;;;24.10;101266.00;;;;4914751;29;20770;-71
2023/09/08 09:12:55;;;;;;;10.13;6.83;;;;;24.30;101256.00;;;;4924196;28;20305;-72
2023/09/08 09:15:44;;;;;;;9.07;6.73;;;;;24.40;101259.00;;;;4918882;29;20240;-72
2023/09/08 09:18:30;;;;;;;9.83;6.53;;;;;24.70;101273.00;;;;4921909;29;20268;-72
2023/09/08 09:21:17;;;;;;;12.47;6.37;;;;;24.80;101264.00;;;;4918097;29;20241;-70
2023/09/08 09:24:03;;;;;;;7.03;6.07;;;;;24.90;101268.00;;;;4928641;29;20224;-70
2023/09/08 09:26:53;;;;;;;14.07;6.00;;;;;25.10;101263.00;;;;4917813;29;20312;-75
2023/09/08 09:29:47;;;;;;;10.30;5.28;;;;;25.30;101267.00;;;;4917729;28;20254;-74
2023/09/08 09:32:35;;;;;;;12.63;5.53;;;;;25.50;101258.00;;;;4918377;29;21013;-72
2023/09/08 09:35:39;;;;;;;6.30;5.22;;;;;25.70;101268.00;;;;4920675;29;20225;-71
2023/09/08 09:38:28;;;;;;;9.43;5.70;;;;;25.90;101264.00;;;;4920613;29;20240;-71
2023/09/08 09:41:14;;;;;;;8.07;5.40;;;;;25.90;101255.00;;;;4919659;29;20711;-74
2023/09/08 09:44:00;;;;;;;7.10;5.32;;;;;26.10;101261.00;;;;4920973;29;20311;-71
2023/09/08 09:46:49;;;;;;;9.18;5.10;;;;;26.30;101260.00;;;;4925694;29;20244;-72
2023/09/08 09:49:43;;;;;;;6.80;5.22;;;;;26.30;101256.00;;;;4926735;29;20241;-68
2023/09/08 09:52:31;;;;;;;12.05;5.20;;;;;26.40;101261.00;;;;4925260;28;20233;-73
2023/09/08 09:55:18;;;;;;;7.45;5.30;;;;;26.60;101253.00;;;;4922567;29;20782;-73
2023/09/08 09:58:05;;;;;;;6.85;5.45;;;;;26.60;101254.00;;;;4920956;29;20252;-70
2023/09/08 10:00:52;;;;;;;8.40;4.97;;;;;26.80;101260.00;;;;4924342;29;20237;-71
2023/09/08 10:03:40;;;;;;;7.38;4.85;;;;;26.90;101250.00;;;;4921351;29;20253;-70
2023/09/08 10:06:27;;;;;;;9.40;5.10;;;;;27.10;101251.00;;;;4923215;29;20349;-69
2023/09/08 10:09:16;;;;;;;6.75;5.10;;;;;27.20;101252.00;;;;4918380;29;20245;-73
2023/09/08 10:12:05;;;;;;;7.53;4.85;;;;;27.30;101247.00;;;;4925500;28;20229;-69
2023/09/08 10:14:53;;;;;;;8.95;5.28;;;;;27.40;101254.00;;;;4922543;28;20232;-70
2023/09/08 10:17:42;;;;;;;9.63;5.22;;;;;27.60;101258.00;;;;4916201;28;20237;-72
2023/09/08 10:20:31;;;;;;;9.63;5.00;;;;;27.60;101259.00;;;;4910671;28;20229;-70
2023/09/08 10:23:23;;;;;;;6.70;5.07;;;;;27.70;101261.00;;;;4921917;28;20780;-71
2023/09/08 10:26:12;;;;;;;10.52;5.20;;;;;27.80;101255.00;;;;4924987;29;20313;-69
2023/09/08 10:28:58;;;;;;;7.40;4.85;;;;;28.00;101260.00;;;;4918364;29;20237;-72
2023/09/08 10:31:46;;;;;;;5.85;4.82;;;;;28.10;101256.00;;;;4923674;29;20611;-71
2023/09/08 10:34:34;;;;;;;8.70;5.13;;;;;28.20;101256.00;;;;4922081;29;20301;-72
2023/09/08 10:37:24;;;;;;;7.85;4.72;;;;;28.40;101259.00;;;;4916652;29;20241;-72
2023/09/08 10:40:24;;;;;;;9.00;4.93;;;;;28.50;101258.00;;;;4926751;29;20236;-68
2023/09/08 10:43:10;;;;;;;7.35;4.88;;;;;28.60;101249.00;;;;4917543;29;20228;-69
2023/09/08 10:45:58;;;;;;;7.43;5.18;;;;;28.60;101260.00;;;;4922844;29;20321;-69
2023/09/08 10:48:44;;;;;;;7.63;4.95;;;;;28.60;101251.00;;;;4919440;29;20292;-69
2023/09/08 10:51:31;;;;;;;6.68;5.00;;;;;28.70;101256.00;;;;4920434;29;20357;-70
2023/09/08 10:54:45;;;;;;;9.35;5.22;;;;;28.70;101257.00;;;;4914839;29;20725;-68
2023/09/08 10:57:34;;;;;;;8.63;5.38;;;;;28.80;101259.00;;;;4921169;28;20293;-69
2023/09/08 11:00:23;;;;;;;7.03;4.80;;;;;28.90;101250.00;;;;4925961;28;20366;-68
2023/09/08 11:03:09;;;;;;;9.57;5.10;;;;;29.00;101244.00;;;;4925315;28;20233;-70
2023/09/08 11:05:58;;;;;;;9.75;4.95;;;;;29.10;101256.00;;;;4924315;29;20851;-70
2023/09/08 11:08:45;;;;;;;7.43;5.20;;;;;29.20;101263.00;;;;4926111;29;20244;-72
2023/09/08 11:11:34;;;;;;;6.82;4.57;;;;;29.30;101261.00;;;;4923335;29;20245;-68
2023/09/08 11:14:21;;;;;;;11.60;5.13;;;;;29.30;101266.00;;;;4925405;29;20268;-71
2023/09/08 11:17:07;;;;;;;7.45;5.05;;;;;29.30;101261.00;;;;4914572;28;20243;-71
2023/09/08 11:19:53;;;;;;;7.93;5.47;;;;;29.50;101260.00;;;;4916851;29;20315;-69
2023/09/08 11:22:40;;;;;;;6.75;4.82;;;;;29.50;101260.00;;;;4923525;29;20284;-67
2023/09/08 11:25:27;;;;;;;6.55;4.97;;;;;29.70;101261.00;;;;4927043;29;20372;-70
2023/09/08 11:28:15;;;;;;;6.03;5.30;;;;;29.80;101265.00;;;;4912195;29;20240;-70
2023/09/08 11:31:03;;;;;;;9.05;5.57;;;;;29.90;101261.00;;;;4914614;29;20777;-68
2023/09/08 11:33:49;;;;;;;9.15;5.55;;;;;30.00;101254.00;;;;4925292;29;20232;-68
2023/09/08 11:36:37;;;;;;;9.43;5.10;;;;;30.20;101253.00;;;;4922945;28;20229;-68
2023/09/08 11:39:24;;;;;;;5.93;5.32;;;;;30.30;101249.00;;;;4921214;29;20225;-68
2023/09/08 11:42:12;;;;;;;9.40;5.10;;;;;30.30;101253.00;;;;4917695;29;20289;-69
2023/09/08 11:45:00;;;;;;;6.10;5.00;;;;;30.40;101261.00;;;;4917103;29;20221;-70
2023/09/08 11:47:46;;;;;;;8.15;5.65;;;;;30.40;101258.00;;;;4916857;29;20366;-70
2023/09/08 11:50:33;;;;;;;7.45;4.93;;;;;30.40;101247.00;;;;4919210;28;20238;-69
2023/09/08 11:53:20;;;;;;;6.20;4.72;;;;;30.50;101243.00;;;;4910204;29;20273;-67
2023/09/08 11:56:08;;;;;;;6.68;5.07;;;;;30.60;101254.00;;;;4925690;29;20300;-69
2023/09/08 11:58:54;;;;;;;6.30;4.95;;;;;30.60;101243.00;;;;4914696;29;20607;-68
2023/09/08 12:01:42;;;;;;;5.95;4.97;;;;;30.70;101235.00;;;;4913341;29;20241;-69
2023/09/08 12:04:28;;;;;;;6.50;4.93;;;;;30.80;101237.00;;;;4919718;29;20225;-70
2023/09/08 12:07:16;;;;;;;6.05;4.90;;;;;30.80;101235.00;;;;4920710;29;20296;-71
2023/09/08 12:10:09;;;;;;;5.88;4.82;;;;;30.90;101244.00;;;;4919757;29;20288;-68
2023/09/08 12:12:59;;;;;;;5.90;4.72;;;;;31.10;101234.00;;;;4929689;28;20708;-72
2023/09/08 12:15:46;;;;;;;7.47;4.78;;;;;31.30;101231.00;;;;4920413;29;20233;-71
2023/09/08 12:18:43;;;;;;;7.35;4.88;;;;;31.40;101230.00;;;;4922437;29;20288;-70
2023/09/08 12:21:31;;;;;;;6.68;5.05;;;;;31.50;101233.00;;;;4923236;29;20228;-70
2023/09/08 12:24:18;;;;;;;7.25;4.90;;;;;31.50;101225.00;;;;4923035;28;20245;-71
2023/09/08 12:27:05;;;;;;;8.38;4.80;;;;;31.60;101230.00;;;;4927304;29;20228;-70
2023/09/08 12:29:58;;;;;;;6.03;4.68;;;;;31.80;101228.00;;;;4922151;29;20245;-70
2023/09/08 12:32:47;;;;;;;6.55;5.00;;;;;31.90;101221.00;;;;4922854;29;20737;-69
2023/09/08 12:35:35;;;;;;;5.20;4.68;;;;;31.90;101229.00;;;;4924522;29;20248;-70
2023/09/08 12:38:22;;;;;;;6.45;5.13;;;;;32.00;101224.00;;;;4916644;29;20769;-71
2023/09/08 12:41:08;;;;;;;5.45;4.95;;;;;32.00;101223.00;;;;4927316;29;20243;-70
2023/09/08 12:43:55;;;;;;;5.72;4.93;;;;;32.20;101223.00;;;;4926774;29;20237;-69
2023/09/08 12:46:42;;;;;;;6.85;4.55;;;;;32.10;101221.00;;;;4920996;29;20229;-70
2023/09/08 12:49:28;;;;;;;7.63;4.82;;;;;32.20;101228.00;;;;4927673;28;20236;-70
2023/09/08 12:52:16;;;;;;;6.18;4.28;;;;;32.20;101221.00;;;;4926702;29;20600;-71
2023/09/08 12:55:02;;;;;;;6.47;4.60;;;;;32.20;101227.00;;;;4917785;28;20615;-69
2023/09/08 12:57:49;;;;;;;5.28;4.53;;;;;32.40;101226.00;;;;4916002;29;20240;-68
2023/09/08 13:00:36;;;;;;;7.18;4.85;;;;;32.50;101223.00;;;;4919886;29;20242;-71
2023/09/08 13:03:22;;;;;;;5.95;4.70;;;;;32.50;101225.00;;;;4926415;28;20603;-71
2023/09/08 13:06:08;;;;;;;5.00;4.50;;;;;32.40;101217.00;;;;4918749;29;20239;-70
2023/09/08 13:08:58;;;;;;;6.90;4.50;;;;;32.40;101216.00;;;;4918277;28;20745;-73
2023/09/08 13:11:44;;;;;;;6.93;4.95;;;;;32.60;101211.00;;;;4919461;29;20722;-71
2023/09/08 13:14:31;;;;;;;4.95;4.45;;;;;32.80;101215.00;;;;4916470;28;21157;-69
2023/09/08 13:17:17;;;;;;;11.57;4.55;;;;;32.70;101200.00;;;;4920416;29;20293;-70
2023/09/08 13:20:04;;;;;;;6.47;4.43;;;;;32.70;101218.00;;;;4919343;29;20236;-67
2023/09/08 13:22:51;;;;;;;6.85;4.60;;;;;32.90;101220.00;;;;4903502;29;20241;-69
2023/09/08 13:25:39;;;;;;;5.53;4.72;;;;;33.10;101209.00;;;;4916668;29;20754;-69
2023/09/08 13:28:26;;;;;;;6.40;4.60;;;;;33.20;101209.00;;;;4920341;28;20237;-72
2023/09/08 13:31:12;;;;;;;5.38;4.40;;;;;33.30;101201.00;;;;4918130;28;20240;-69
2023/09/08 13:33:58;;;;;;;5.65;4.72;;;;;33.40;101197.00;;;;4926504;29;20616;-69
2023/09/08 13:36:44;;;;;;;5.10;4.60;;;;;33.30;101205.00;;;;4925242;29;20232;-70
2023/09/08 13:39:31;;;;;;;5.20;4.70;;;;;33.40;101202.00;;;;4927917;29;20248;-68